createdAt,value
2023-02-01T00:00:07.255Z,0
2023-02-01T00:00:47.754Z,0
2023-02-01T00:01:28.306Z,0
2023-02-01T00:02:08.821Z,0
2023-02-01T00:02:49.364Z,0
2023-02-01T00:03:29.869Z,0
2023-02-01T00:04:10.373Z,0
2023-02-01T00:10:55.724Z,0
2023-02-01T00:11:36.226Z,0
2023-02-01T00:12:16.776Z,0
2023-02-01T00:12:57.273Z,0
2023-02-01T00:13:37.823Z,0
2023-02-01T00:14:18.338Z,0
2023-02-01T00:14:58.862Z,0
2023-02-01T00:15:39.413Z,0
2023-02-01T00:16:19.993Z,0
2023-02-01T00:17:00.517Z,0
2023-02-01T00:23:45.796Z,0
2023-02-01T00:24:26.315Z,0
2023-02-01T00:25:06.817Z,0
2023-02-01T00:25:47.341Z,0
2023-02-01T00:28:16.289Z,0
2023-02-01T00:28:56.810Z,0
2023-02-01T00:29:37.331Z,0
2023-02-01T00:30:17.851Z,0
2023-02-01T00:30:58.460Z,0
2023-02-01T00:31:38.935Z,0
2023-02-01T00:32:19.432Z,0
2023-02-01T00:32:59.954Z,0
2023-02-01T00:33:41.039Z,0
2023-02-01T00:39:05.881Z,0
2023-02-01T00:39:46.409Z,0
2023-02-01T00:41:59.498Z,0
2023-02-01T00:42:40.065Z,0
2023-02-01T00:43:20.690Z,0
2023-02-01T00:44:01.241Z,0
2023-02-01T00:46:14.268Z,0
2023-02-01T00:46:54.813Z,0
2023-02-01T00:47:35.306Z,0
2023-02-01T00:48:15.831Z,0
2023-02-01T00:48:56.343Z,0
2023-02-01T00:49:36.852Z,0
2023-02-01T00:52:53.395Z,0
2023-02-01T00:53:33.960Z,0
2023-02-01T00:54:14.511Z,0
2023-02-01T00:54:55.028Z,0
2023-02-01T00:55:35.528Z,0
2023-02-01T00:56:16.054Z,0
2023-02-01T00:56:56.613Z,0
2023-02-01T00:57:37.098Z,0
2023-02-01T00:58:17.605Z,0
2023-02-01T01:00:30.662Z,0
2023-02-01T01:01:11.251Z,0
2023-02-01T01:01:51.769Z,0
2023-02-01T01:02:32.289Z,0
2023-02-01T01:03:14.411Z,0
2023-02-01T01:03:54.967Z,0
2023-02-01T01:04:35.490Z,0
2023-02-01T01:10:37.518Z,0
2023-02-01T01:11:18.021Z,0
2023-02-01T01:11:58.553Z,0
2023-02-01T01:12:39.095Z,0
2023-02-01T01:13:19.755Z,0
2023-02-01T01:14:00.307Z,0
2023-02-01T01:14:40.844Z,0
2023-02-01T01:15:21.389Z,0
2023-02-01T01:16:01.974Z,0
2023-02-01T01:16:42.456Z,0
2023-02-01T01:22:07.598Z,0
2023-02-01T01:22:49.116Z,0
2023-02-01T01:23:29.756Z,0
2023-02-01T01:24:10.263Z,0
2023-02-01T01:24:50.801Z,0
2023-02-01T01:25:31.335Z,0
2023-02-01T01:26:11.885Z,0
2023-02-01T01:26:52.483Z,0
2023-02-01T01:32:57.263Z,0
2023-02-01T01:33:37.814Z,0
2023-02-01T01:35:50.853Z,0
2023-02-01T01:36:31.401Z,0
2023-02-01T01:37:11.935Z,0
2023-02-01T01:37:52.449Z,0
2023-02-01T01:38:33.056Z,0
2023-02-01T01:39:13.549Z,0
2023-02-01T01:39:54.055Z,0
2023-02-01T01:40:34.586Z,0
2023-02-01T01:41:15.100Z,0
2023-02-01T01:41:55.613Z,0
2023-02-01T01:46:35.943Z,0
2023-02-01T01:47:16.330Z,0
2023-02-01T01:47:56.857Z,0
2023-02-01T01:48:37.407Z,0
2023-02-01T01:49:17.935Z,0
2023-02-01T01:49:58.459Z,0
2023-02-01T01:50:38.988Z,0
2023-02-01T01:51:19.482Z,0
2023-02-01T01:52:00.735Z,0
2023-02-01T01:58:05.588Z,0
2023-02-01T01:58:46.078Z,0
2023-02-01T02:00:59.433Z,0
2023-02-01T02:01:39.933Z,0
2023-02-01T02:02:22.987Z,0
2023-02-01T02:03:03.423Z,0
2023-02-01T02:03:44.046Z,0
2023-02-01T02:05:09.325Z,0
2023-02-01T02:05:49.823Z,0
2023-02-01T02:06:33.819Z,0
2023-02-01T02:09:05.319Z,0
2023-02-01T02:09:51.160Z,0
2023-02-01T02:10:24.403Z,0
2023-02-01T02:11:04.921Z,0
2023-02-01T02:11:45.456Z,0
2023-02-01T02:12:26.005Z,0
2023-02-01T02:13:06.549Z,0
2023-02-01T02:13:47.067Z,0
2023-02-01T02:14:27.592Z,0
2023-02-01T02:15:08.665Z,0
2023-02-01T02:19:08.189Z,0
2023-02-01T02:19:48.703Z,0
2023-02-01T02:20:29.395Z,0
2023-02-01T02:21:09.909Z,0
2023-02-01T02:21:50.436Z,0
2023-02-01T02:22:30.951Z,0
2023-02-01T02:23:11.453Z,0
2023-02-01T02:23:51.989Z,0
2023-02-01T02:24:32.534Z,0
2023-02-01T02:25:13.073Z,0
2023-02-01T02:30:34.680Z,0
2023-02-01T02:31:15.175Z,0
2023-02-01T02:31:55.734Z,0
2023-02-01T02:32:36.268Z,0
2023-02-01T02:33:16.818Z,0
2023-02-01T02:33:57.340Z,0
2023-02-01T02:34:37.844Z,0
2023-02-01T02:35:18.364Z,0
2023-02-01T02:35:58.931Z,0
2023-02-01T02:36:39.474Z,0
2023-02-01T02:44:01.659Z,0
2023-02-01T02:44:43.306Z,0
2023-02-01T02:45:23.792Z,0
2023-02-01T02:46:04.377Z,0
2023-02-01T02:46:44.896Z,0
2023-02-01T02:49:18.808Z,0
2023-02-01T02:49:59.337Z,0
2023-02-01T02:50:40.414Z,0
2023-02-01T02:51:21.822Z,0
2023-02-01T02:52:02.419Z,0
2023-02-01T02:52:42.938Z,0
2023-02-01T02:57:28.672Z,0
2023-02-01T02:58:09.209Z,0
2023-02-01T02:58:49.699Z,0
2023-02-01T02:59:30.234Z,0
2023-02-01T03:00:10.772Z,0
2023-02-01T03:00:51.393Z,0
2023-02-01T03:01:31.828Z,0
2023-02-01T03:02:12.395Z,0
2023-02-01T03:02:52.991Z,0
2023-02-01T03:03:33.446Z,0
2023-02-01T03:06:11.942Z,0
2023-02-01T03:06:52.442Z,0
2023-02-01T03:07:32.964Z,0
2023-02-01T03:08:13.499Z,0
2023-02-01T03:08:54.046Z,0
2023-02-01T03:09:34.579Z,0
2023-02-01T03:10:15.208Z,0
2023-02-01T03:10:55.722Z,0
2023-02-01T03:11:36.238Z,0
2023-02-01T03:12:16.761Z,0
2023-02-01T03:16:12.401Z,0
2023-02-01T03:16:53.081Z,0
2023-02-01T03:17:33.484Z,0
2023-02-01T03:18:14.003Z,0
2023-02-01T03:18:55.311Z,0
2023-02-01T03:19:35.832Z,0
2023-02-01T03:20:16.379Z,0
2023-02-01T03:22:55.132Z,0
2023-02-01T03:23:35.650Z,0
2023-02-01T03:24:16.241Z,0
2023-02-01T03:24:56.809Z,0
2023-02-01T03:25:37.295Z,0
2023-02-01T03:26:17.858Z,0
2023-02-01T03:26:58.400Z,0
2023-02-01T03:27:38.934Z,0
2023-02-01T03:28:19.484Z,0
2023-02-01T03:28:59.986Z,0
2023-02-01T03:35:17.236Z,0
2023-02-01T03:35:57.763Z,0
2023-02-01T03:36:38.319Z,0
2023-02-01T03:37:18.866Z,0
2023-02-01T03:39:31.896Z,0
2023-02-01T03:40:12.412Z,0
2023-02-01T03:40:53.524Z,0
2023-02-01T03:41:34.013Z,0
2023-02-01T03:42:14.525Z,0
2023-02-01T03:42:55.027Z,0
2023-02-01T03:43:35.562Z,0
2023-02-01T03:44:16.105Z,0
2023-02-01T03:46:49.450Z,0
2023-02-01T03:47:30.012Z,0
2023-02-01T03:48:11.191Z,0
2023-02-01T03:48:51.729Z,0
2023-02-01T03:51:09.843Z,0
2023-02-01T03:51:50.388Z,0
2023-02-01T03:52:30.889Z,0
2023-02-01T03:53:11.410Z,0
2023-02-01T03:53:51.958Z,0
2023-02-01T03:54:32.440Z,0
2023-02-01T03:55:12.956Z,0
2023-02-01T03:55:53.506Z,0
2023-02-01T03:56:34.003Z,0
2023-02-01T03:57:14.506Z,0
2023-02-01T04:04:38.179Z,0
2023-02-01T04:05:18.823Z,0
2023-02-01T04:05:59.319Z,0
2023-02-01T04:06:39.949Z,0
2023-02-01T04:08:53.790Z,0
2023-02-01T04:09:34.388Z,0
2023-02-01T04:10:14.896Z,0
2023-02-01T04:10:56.208Z,0
2023-02-01T04:13:09.306Z,0
2023-02-01T04:13:49.797Z,0
2023-02-01T04:14:30.381Z,0
2023-02-01T04:15:10.936Z,0
2023-02-01T04:17:08.895Z,0
2023-02-01T04:17:49.448Z,0
2023-02-01T04:18:30.060Z,0
2023-02-01T04:19:10.724Z,0
2023-02-01T04:19:51.271Z,0
2023-02-01T04:20:32.635Z,0
2023-02-01T04:21:14.046Z,0
2023-02-01T04:21:54.653Z,0
2023-02-01T04:24:07.764Z,0
2023-02-01T04:24:48.303Z,0
2023-02-01T04:25:28.996Z,0
2023-02-01T04:26:09.463Z,0
2023-02-01T04:26:50.277Z,0
2023-02-01T04:27:31.248Z,0
2023-02-01T04:28:12.745Z,0
2023-02-01T04:28:53.937Z,0
2023-02-01T04:29:34.375Z,0
2023-02-01T04:30:14.952Z,0
2023-02-01T04:30:56.259Z,0
2023-02-01T04:31:36.869Z,0
2023-02-01T04:32:17.464Z,0
2023-02-01T04:37:42.734Z,0
2023-02-01T04:38:23.315Z,0
2023-02-01T04:39:04.787Z,0
2023-02-01T04:39:45.437Z,0
2023-02-01T04:40:26.227Z,0
2023-02-01T04:41:06.762Z,0
2023-02-01T04:41:47.337Z,0
2023-02-01T04:48:31.660Z,0
2023-02-01T04:49:12.191Z,0
2023-02-01T04:49:52.772Z,0
2023-02-01T04:50:33.262Z,0
2023-02-01T04:51:13.796Z,0
2023-02-01T04:51:54.315Z,0
2023-02-01T04:52:34.845Z,0
2023-02-01T04:53:15.364Z,0
2023-02-01T04:55:48.734Z,0
2023-02-01T04:56:29.326Z,0
2023-02-01T04:57:09.841Z,0
2023-02-01T04:57:50.403Z,0
2023-02-01T04:58:30.931Z,0
2023-02-01T04:59:11.502Z,0
2023-02-01T04:59:52.023Z,0
2023-02-01T05:02:10.271Z,0
2023-02-01T05:02:50.845Z,0
2023-02-01T05:03:31.453Z,0
2023-02-01T05:04:11.922Z,0
2023-02-01T05:04:54.133Z,0
2023-02-01T05:07:55.564Z,0
2023-02-01T05:08:38.546Z,0
2023-02-01T05:09:16.623Z,0
2023-02-01T05:09:57.345Z,0
2023-02-01T05:10:37.879Z,0
2023-02-01T05:11:18.495Z,0
2023-02-01T05:13:31.589Z,0
2023-02-01T05:14:12.189Z,0
2023-02-01T05:14:52.773Z,0
2023-02-01T05:15:33.338Z,0
2023-02-01T05:16:14.475Z,0
2023-02-01T05:16:54.959Z,0
2023-02-01T05:19:08.572Z,0
2023-02-01T05:19:49.100Z,0
2023-02-01T05:20:29.709Z,0
2023-02-01T05:21:10.245Z,0
2023-02-01T05:23:28.324Z,0
2023-02-01T05:24:08.855Z,0
2023-02-01T05:24:49.374Z,0
2023-02-01T05:25:30.838Z,0
2023-02-01T05:26:11.331Z,0
2023-02-01T05:26:51.955Z,0
2023-02-01T05:27:32.392Z,0
2023-02-01T05:28:12.931Z,0
2023-02-01T05:28:53.455Z,0
2023-02-01T05:34:18.274Z,0
2023-02-01T05:34:58.793Z,0
2023-02-01T05:35:39.304Z,0
2023-02-01T05:36:19.866Z,0
2023-02-01T05:37:00.392Z,0
2023-02-01T05:37:40.914Z,0
2023-02-01T05:38:21.407Z,0
2023-02-01T05:40:35.853Z,0
2023-02-01T05:41:16.398Z,0
2023-02-01T05:41:58.842Z,0
2023-02-01T05:42:39.340Z,0
2023-02-01T05:44:58.169Z,0
2023-02-01T05:45:39.184Z,0
2023-02-01T05:46:23.297Z,0
2023-02-01T05:48:58.734Z,0
2023-02-01T05:49:39.287Z,0
2023-02-01T05:50:19.844Z,0
2023-02-01T05:51:00.343Z,0
2023-02-01T05:51:40.849Z,0
2023-02-01T05:52:21.386Z,0
2023-02-01T05:53:02.733Z,0
2023-02-01T05:53:44.139Z,0
2023-02-01T05:59:08.356Z,0
2023-02-01T05:59:49.815Z,0
2023-02-01T06:00:30.352Z,0
2023-02-01T06:01:10.945Z,0
2023-02-01T06:01:51.435Z,0
2023-02-01T06:03:13.398Z,0
2023-02-01T06:03:53.978Z,0
2023-02-01T06:04:34.459Z,0
2023-02-01T06:05:14.994Z,0
2023-02-01T06:05:56.275Z,0
2023-02-01T06:06:37.411Z,0
2023-02-01T06:07:17.926Z,0
2023-02-01T06:07:58.439Z,0
2023-02-01T06:14:44.636Z,0
2023-02-01T06:15:25.954Z,0
2023-02-01T06:17:39.076Z,0
2023-02-01T06:18:19.572Z,0
2023-02-01T06:19:00.102Z,0
2023-02-01T06:19:40.586Z,0
2023-02-01T06:20:21.450Z,0
2023-02-01T06:21:01.779Z,0
2023-02-01T06:21:42.261Z,0
2023-02-01T06:22:22.833Z,0
2023-02-01T06:23:03.363Z,0
2023-02-01T06:23:43.879Z,0
2023-02-01T06:30:29.150Z,4
2023-02-01T06:31:09.740Z,4
2023-02-01T06:31:50.307Z,4
2023-02-01T06:32:30.701Z,4
2023-02-01T06:33:12.041Z,4
2023-02-01T06:33:52.421Z,0
2023-02-01T06:34:32.934Z,0
2023-02-01T06:35:13.475Z,4
2023-02-01T06:35:53.998Z,4
2023-02-01T06:40:39.130Z,4
2023-02-01T06:41:19.688Z,4
2023-02-01T06:42:00.201Z,4
2023-02-01T06:42:40.736Z,4
2023-02-01T06:43:21.234Z,8
2023-02-01T06:44:01.789Z,4
2023-02-01T06:44:42.349Z,8
2023-02-01T06:45:22.889Z,8
2023-02-01T06:46:03.463Z,8
2023-02-01T06:46:44.030Z,12
2023-02-01T06:52:48.808Z,16
2023-02-01T06:53:29.367Z,20
2023-02-01T06:54:09.950Z,20
2023-02-01T06:54:50.475Z,24
2023-02-01T06:55:30.997Z,24
2023-02-01T06:56:11.507Z,32
2023-02-01T06:56:52.046Z,36
2023-02-01T06:57:32.578Z,32
2023-02-01T06:58:13.110Z,40
2023-02-01T06:58:53.636Z,52
2023-02-01T06:59:34.154Z,56
2023-02-01T07:05:38.973Z,44
2023-02-01T07:06:19.517Z,48
2023-02-01T07:07:00.020Z,64
2023-02-01T07:07:40.566Z,64
2023-02-01T07:08:21.100Z,76
2023-02-01T07:09:01.629Z,84
2023-02-01T07:09:42.122Z,96
2023-02-01T07:10:23.031Z,96
2023-02-01T07:12:51.177Z,88
2023-02-01T07:13:32.200Z,104
2023-02-01T07:14:12.751Z,96
2023-02-01T07:14:53.295Z,104
2023-02-01T07:17:06.491Z,88
2023-02-01T07:17:47.929Z,104
2023-02-01T07:18:28.445Z,132
2023-02-01T07:19:08.963Z,180
2023-02-01T07:21:37.291Z,360
2023-02-01T07:22:17.784Z,392
2023-02-01T07:22:58.330Z,468
2023-02-01T07:23:38.840Z,464
2023-02-01T07:24:19.360Z,440
2023-02-01T07:24:59.883Z,464
2023-02-01T07:25:41.367Z,504
2023-02-01T07:26:21.921Z,576
2023-02-01T07:32:27.715Z,1408
2023-02-01T07:33:08.253Z,1464
2023-02-01T07:33:48.786Z,1476
2023-02-01T07:34:29.337Z,1496
2023-02-01T07:35:09.891Z,1616
2023-02-01T07:35:50.436Z,1736
2023-02-01T07:36:30.970Z,1668
2023-02-01T07:37:11.513Z,1604
2023-02-01T07:37:51.989Z,1524
2023-02-01T07:43:56.971Z,1360
2023-02-01T07:44:37.470Z,1408
2023-02-01T07:45:21.174Z,1540
2023-02-01T07:45:58.693Z,1636
2023-02-01T07:46:39.093Z,1704
2023-02-01T07:47:19.604Z,1780
2023-02-01T07:48:00.173Z,1824
2023-02-01T07:48:41.417Z,1828
2023-02-01T07:49:21.966Z,1828
2023-02-01T07:56:07.177Z,2292
2023-02-01T07:56:47.731Z,2264
2023-02-01T07:57:28.268Z,2208
2023-02-01T07:58:08.799Z,2232
2023-02-01T07:58:49.319Z,2300
2023-02-01T07:59:29.883Z,2340
2023-02-01T08:00:11.378Z,2368
2023-02-01T08:00:51.986Z,2408
2023-02-01T08:06:53.304Z,3268
2023-02-01T08:07:33.873Z,3532
2023-02-01T08:08:14.436Z,3792
2023-02-01T08:08:54.940Z,4084
2023-02-01T08:09:35.535Z,4424
2023-02-01T08:10:16.077Z,4628
2023-02-01T08:10:56.608Z,4488
2023-02-01T08:11:37.278Z,4304
2023-02-01T08:12:17.856Z,4084
2023-02-01T08:12:58.409Z,3824
2023-02-01T08:19:03.406Z,3176
2023-02-01T08:19:43.900Z,3016
2023-02-01T08:20:24.785Z,3496
2023-02-01T08:21:04.944Z,3588
2023-02-01T08:21:45.449Z,3908
2023-02-01T08:22:25.977Z,4156
2023-02-01T08:24:39.457Z,4548
2023-02-01T08:25:20.654Z,4524
2023-02-01T08:26:01.167Z,4556
2023-02-01T08:26:41.761Z,4616
2023-02-01T08:28:54.766Z,4256
2023-02-01T08:29:35.954Z,4364
2023-02-01T08:30:16.475Z,4212
2023-02-01T08:30:57.131Z,3824
2023-02-01T08:31:37.505Z,3416
2023-02-01T08:36:57.637Z,1476
2023-02-01T08:37:40.639Z,1460
2023-02-01T08:38:21.149Z,1500
2023-02-01T08:39:02.560Z,1584
2023-02-01T08:41:15.647Z,1324
2023-02-01T08:41:56.747Z,1312
2023-02-01T08:42:37.293Z,1208
2023-02-01T08:43:17.806Z,1220
2023-02-01T08:45:31.725Z,892
2023-02-01T08:46:12.392Z,908
2023-02-01T08:46:52.845Z,912
2023-02-01T08:47:33.391Z,860
2023-02-01T08:48:13.921Z,1160
2023-02-01T08:48:54.478Z,1500
2023-02-01T08:49:35.009Z,1700
2023-02-01T08:50:15.540Z,1608
2023-02-01T08:50:56.044Z,1236
2023-02-01T08:51:36.582Z,1012
2023-02-01T08:58:21.900Z,2048
2023-02-01T08:59:02.443Z,2344
2023-02-01T08:59:42.967Z,2580
2023-02-01T09:00:23.791Z,2856
2023-02-01T09:01:04.046Z,3088
2023-02-01T09:01:44.546Z,3312
2023-02-01T09:03:57.871Z,4260
2023-02-01T09:04:38.327Z,4436
2023-02-01T09:05:21.635Z,4504
2023-02-01T09:06:02.174Z,3948
2023-02-01T09:06:42.721Z,4372
2023-02-01T09:12:47.481Z,5556
2023-02-01T09:13:27.973Z,6016
2023-02-01T09:14:08.479Z,6052
2023-02-01T09:14:49.094Z,6300
2023-02-01T09:15:29.562Z,6800
2023-02-01T09:16:10.155Z,6464
2023-02-01T09:16:50.578Z,5272
2023-02-01T09:19:44.830Z,6124
2023-02-01T09:20:26.984Z,5292
2023-02-01T09:21:07.316Z,5252
2023-02-01T09:23:26.945Z,4008
2023-02-01T09:24:09.035Z,3992
2023-02-01T09:24:50.210Z,4024
2023-02-01T09:27:25.220Z,4308
2023-02-01T09:28:05.750Z,5368
2023-02-01T09:28:46.264Z,6560
2023-02-01T09:29:26.805Z,5564
2023-02-01T09:30:07.339Z,5508
2023-02-01T09:30:47.985Z,5400
2023-02-01T09:31:28.534Z,5000
2023-02-01T09:32:08.966Z,5512
2023-02-01T09:32:49.409Z,5484
2023-02-01T09:33:29.921Z,5784
2023-02-01T09:39:35.435Z,2904
2023-02-01T09:40:15.939Z,2788
2023-02-01T09:40:57.450Z,2544
2023-02-01T09:41:37.953Z,2256
2023-02-01T09:42:18.491Z,1852
2023-02-01T09:42:59.027Z,1660
2023-02-01T09:43:39.516Z,1588
2023-02-01T09:49:05.449Z,2716
2023-02-01T09:51:18.696Z,2548
2023-02-01T09:52:00.171Z,2352
2023-02-01T09:52:41.592Z,2228
2023-02-01T09:53:22.099Z,2104
2023-02-01T09:55:53.424Z,2232
2023-02-01T09:56:33.946Z,2204
2023-02-01T09:57:14.498Z,2156
2023-02-01T09:57:54.993Z,2092
2023-02-01T09:58:35.524Z,2176
2023-02-01T09:59:16.020Z,2068
2023-02-01T09:59:58.379Z,2176
2023-02-01T10:02:09.733Z,2656
2023-02-01T10:02:50.383Z,2876
2023-02-01T10:03:30.948Z,2744
2023-02-01T10:04:14.004Z,2512
2023-02-01T10:06:47.434Z,2272
2023-02-01T10:07:28.000Z,2604
2023-02-01T10:08:08.550Z,3348
2023-02-01T10:08:49.094Z,3380
2023-02-01T10:11:17.091Z,5284
2023-02-01T10:11:57.644Z,4736
2023-02-01T10:12:38.192Z,4860
2023-02-01T10:13:18.789Z,4592
2023-02-01T10:15:52.417Z,3516
2023-02-01T10:16:32.950Z,3324
2023-02-01T10:17:13.273Z,3016
2023-02-01T10:17:56.278Z,2684
2023-02-01T10:18:35.312Z,2700
2023-02-01T10:19:16.822Z,2944
2023-02-01T10:25:22.637Z,6828
2023-02-01T10:26:03.157Z,6612
2023-02-01T10:26:44.847Z,5752
2023-02-01T10:29:13.820Z,5688
2023-02-01T10:29:54.518Z,6292
2023-02-01T10:30:35.738Z,5736
2023-02-01T10:31:15.756Z,5280
2023-02-01T10:31:56.294Z,5248
2023-02-01T10:32:36.667Z,4804
2023-02-01T10:33:17.166Z,4104
2023-02-01T10:33:57.682Z,3596
2023-02-01T10:34:38.218Z,3264
2023-02-01T10:35:18.753Z,2940
2023-02-01T10:39:18.322Z,3096
2023-02-01T10:39:58.853Z,3540
2023-02-01T10:40:39.385Z,4560
2023-02-01T10:41:19.876Z,4908
2023-02-01T10:42:00.434Z,4836
2023-02-01T10:42:40.966Z,4828
2023-02-01T10:44:54.142Z,2968
2023-02-01T10:45:34.647Z,3040
2023-02-01T10:46:15.312Z,3816
2023-02-01T10:46:55.849Z,4428
2023-02-01T10:47:36.515Z,4212
2023-02-01T10:48:17.036Z,3816
2023-02-01T10:48:57.609Z,3672
2023-02-01T10:49:38.159Z,3852
2023-02-01T10:50:18.714Z,4156
2023-02-01T10:54:59.527Z,3656
2023-02-01T10:55:41.267Z,3400
2023-02-01T10:56:21.759Z,3228
2023-02-01T10:57:02.309Z,3356
2023-02-01T10:57:42.828Z,3840
2023-02-01T10:58:23.375Z,3988
2023-02-01T10:59:03.928Z,3552
2023-02-01T11:05:08.888Z,2892
2023-02-01T11:05:49.441Z,2996
2023-02-01T11:06:30.009Z,3212
2023-02-01T11:07:10.474Z,3364
2023-02-01T11:07:51.022Z,3600
2023-02-01T11:08:31.544Z,3492
2023-02-01T11:09:12.093Z,3208
2023-02-01T11:09:52.626Z,2988
2023-02-01T11:10:33.125Z,2844
2023-02-01T11:11:13.788Z,2800
2023-02-01T11:15:58.574Z,3716
2023-02-01T11:16:39.048Z,3840
2023-02-01T11:19:55.508Z,3396
2023-02-01T11:20:36.774Z,3220
2023-02-01T11:21:17.301Z,3260
2023-02-01T11:21:57.821Z,3400
2023-02-01T11:22:38.331Z,3572
2023-02-01T11:23:18.873Z,3724
2023-02-01T11:23:59.428Z,3644
2023-02-01T11:24:39.945Z,3416
2023-02-01T11:25:20.488Z,3284
2023-02-01T11:30:34.226Z,2900
2023-02-01T11:31:14.785Z,2832
2023-02-01T11:31:55.375Z,3080
2023-02-01T11:32:35.973Z,3632
2023-02-01T11:34:49.556Z,2412
2023-02-01T11:35:30.782Z,2328
2023-02-01T11:36:11.311Z,2304
2023-02-01T11:36:52.752Z,2240
2023-02-01T11:39:27.904Z,2228
2023-02-01T11:40:08.416Z,2288
2023-02-01T11:40:50.636Z,2424
2023-02-01T11:41:31.858Z,2444
2023-02-01T11:44:02.204Z,2636
2023-02-01T11:44:43.399Z,2744
2023-02-01T11:45:23.911Z,2700
2023-02-01T11:46:04.456Z,2728
2023-02-01T11:48:32.749Z,3320
2023-02-01T11:49:17.455Z,3656
2023-02-01T11:50:01.427Z,3996
2023-02-01T11:50:43.531Z,4596
2023-02-01T11:52:57.123Z,4256
2023-02-01T11:53:37.618Z,4868
2023-02-01T11:54:18.175Z,5380
2023-02-01T11:54:58.733Z,4932
2023-02-01T11:57:12.317Z,4280
2023-02-01T11:57:53.576Z,4472
2023-02-01T11:58:35.667Z,4356
2023-02-01T11:59:16.220Z,4240
2023-02-01T12:01:29.234Z,3436
2023-02-01T12:02:09.782Z,3444
2023-02-01T12:02:50.359Z,3536
2023-02-01T12:03:30.866Z,3620
2023-02-01T12:04:11.832Z,3824
2023-02-01T12:04:52.331Z,4312
2023-02-01T12:05:34.690Z,4856
2023-02-01T12:10:18.980Z,4188
2023-02-01T12:11:00.427Z,3936
2023-02-01T12:11:40.941Z,3580
2023-02-01T12:12:21.454Z,3312
2023-02-01T12:13:02.866Z,3416
2023-02-01T12:13:43.417Z,3640
2023-02-01T12:14:23.913Z,3876
2023-02-01T12:18:24.301Z,3168
2023-02-01T12:19:04.822Z,2964
2023-02-01T12:19:45.368Z,2748
2023-02-01T12:20:26.458Z,2636
2023-02-01T12:21:06.452Z,2644
2023-02-01T12:21:46.998Z,2400
2023-02-01T12:22:27.558Z,2640
2023-02-01T12:23:08.076Z,3084
2023-02-01T12:23:48.585Z,3084
2023-02-01T12:24:29.095Z,3000
2023-02-01T12:31:51.295Z,3848
2023-02-01T12:32:31.929Z,4004
2023-02-01T12:33:12.443Z,4072
2023-02-01T12:33:52.945Z,4060
2023-02-01T12:34:33.504Z,3740
2023-02-01T12:35:14.038Z,3548
2023-02-01T12:35:54.559Z,3348
2023-02-01T12:36:35.130Z,3004
2023-02-01T12:37:15.669Z,2564
2023-02-01T12:37:56.254Z,2688
2023-02-01T12:42:41.442Z,3568
2023-02-01T12:43:21.930Z,2812
2023-02-01T12:44:02.486Z,2248
2023-02-01T12:44:43.018Z,1936
2023-02-01T12:45:23.542Z,2104
2023-02-01T12:46:04.140Z,2412
2023-02-01T12:46:44.610Z,2488
2023-02-01T12:47:25.145Z,2520
2023-02-01T12:48:05.689Z,2480
2023-02-01T12:48:46.238Z,2588
2023-02-01T12:54:50.983Z,2280
2023-02-01T12:55:31.476Z,2244
2023-02-01T12:56:12.000Z,2268
2023-02-01T12:56:52.492Z,2516
2023-02-01T12:57:33.026Z,2644
2023-02-01T12:59:49.493Z,2172
2023-02-01T13:00:30.033Z,2056
2023-02-01T13:01:10.734Z,2032
2023-02-01T13:01:51.226Z,2028
2023-02-01T13:04:04.493Z,1664
2023-02-01T13:04:45.659Z,1836
2023-02-01T13:05:27.949Z,1692
2023-02-01T13:06:08.507Z,1560
2023-02-01T13:08:06.470Z,1240
2023-02-01T13:08:47.003Z,1340
2023-02-01T13:09:27.498Z,1588
2023-02-01T13:10:08.018Z,1632
2023-02-01T13:10:48.571Z,1592
2023-02-01T13:11:29.140Z,1972
2023-02-01T13:12:09.674Z,2304
2023-02-01T13:12:50.248Z,2608
2023-02-01T13:13:30.853Z,2312
2023-02-01T13:19:36.466Z,2128
2023-02-01T13:20:16.968Z,2364
2023-02-01T13:20:57.479Z,2696
2023-02-01T13:21:38.007Z,2660
2023-02-01T13:22:18.559Z,2388
2023-02-01T13:22:59.093Z,2048
2023-02-01T13:23:39.684Z,1812
2023-02-01T13:24:20.197Z,1884
2023-02-01T13:25:00.730Z,2304
2023-02-01T13:25:41.897Z,2448
2023-02-01T13:29:46.489Z,1872
2023-02-01T13:30:27.082Z,2112
2023-02-01T13:32:53.133Z,1780
2023-02-01T13:33:51.801Z,1812
2023-02-01T13:34:01.775Z,1964
2023-02-01T13:34:42.338Z,2080
2023-02-01T13:36:58.225Z,1876
2023-02-01T13:37:45.093Z,1940
2023-02-01T13:38:28.227Z,2308
2023-02-01T13:39:13.626Z,2468
2023-02-01T13:39:56.115Z,2548
2023-02-01T13:40:37.591Z,2816
2023-02-01T13:42:36.926Z,3152
2023-02-01T13:43:17.469Z,3212
2023-02-01T13:43:58.045Z,3064
2023-02-01T13:44:38.576Z,3240
2023-02-01T13:45:19.155Z,2848
2023-02-01T13:47:32.415Z,2352
2023-02-01T13:48:12.984Z,1924
2023-02-01T13:48:54.479Z,1544
2023-02-01T13:49:36.474Z,1292
2023-02-01T13:51:49.555Z,1348
2023-02-01T13:52:30.091Z,1300
2023-02-01T13:53:10.637Z,1252
2023-02-01T13:53:51.220Z,1148
2023-02-01T13:54:31.801Z,1044
2023-02-01T13:55:12.309Z,1088
2023-02-01T13:55:52.859Z,1252
2023-02-01T13:56:33.399Z,1320
2023-02-01T13:57:13.990Z,1440
2023-02-01T13:57:54.511Z,1692
2023-02-01T14:01:59.313Z,2744
2023-02-01T14:02:39.833Z,2768
2023-02-01T14:03:20.370Z,3036
2023-02-01T14:04:00.949Z,2696
2023-02-01T14:04:42.180Z,2344
2023-02-01T14:05:23.026Z,2864
2023-02-01T14:07:35.475Z,2952
2023-02-01T14:08:15.996Z,2736
2023-02-01T14:08:56.562Z,2580
2023-02-01T14:09:37.190Z,2500
2023-02-01T14:11:50.205Z,1600
2023-02-01T14:12:30.747Z,1704
2023-02-01T14:13:11.276Z,1464
2023-02-01T14:13:52.749Z,1168
2023-02-01T14:14:33.260Z,1020
2023-02-01T14:15:13.763Z,976
2023-02-01T14:15:54.361Z,984
2023-02-01T14:16:34.859Z,1080
2023-02-01T14:23:57.287Z,2084
2023-02-01T14:24:37.827Z,1916
2023-02-01T14:25:18.372Z,1740
2023-02-01T14:25:58.882Z,1596
2023-02-01T14:26:39.471Z,1524
2023-02-01T14:27:19.936Z,1444
2023-02-01T14:28:00.479Z,1388
2023-02-01T14:28:40.992Z,1412
2023-02-01T14:30:54.104Z,1148
2023-02-01T14:31:34.693Z,1068
2023-02-01T14:32:15.112Z,980
2023-02-01T14:32:55.640Z,948
2023-02-01T14:33:37.040Z,924
2023-02-01T14:34:17.554Z,932
2023-02-01T14:34:58.153Z,924
2023-02-01T14:35:38.585Z,924
2023-02-01T14:36:19.144Z,968
2023-02-01T14:40:24.103Z,1132
2023-02-01T14:41:04.567Z,1408
2023-02-01T14:41:45.073Z,1476
2023-02-01T14:42:25.610Z,1292
2023-02-01T14:43:06.174Z,1252
2023-02-01T14:43:46.724Z,1188
2023-02-01T14:44:27.280Z,1136
2023-02-01T14:47:43.585Z,2088
2023-02-01T14:48:24.080Z,2752
2023-02-01T14:49:04.597Z,3360
2023-02-01T14:49:45.114Z,3932
2023-02-01T14:50:26.338Z,4376
2023-02-01T14:51:06.850Z,4380
2023-02-01T14:51:47.395Z,4152
2023-02-01T14:52:27.901Z,3876
2023-02-01T14:53:08.493Z,3824
2023-02-01T14:55:49.320Z,3476
2023-02-01T14:56:27.756Z,3112
2023-02-01T14:57:08.307Z,3020
2023-02-01T14:57:48.852Z,2748
2023-02-01T14:58:29.426Z,2712
2023-02-01T14:59:09.903Z,2684
2023-02-01T14:59:50.487Z,2412
2023-02-01T15:00:30.971Z,2044
2023-02-01T15:03:47.776Z,1724
2023-02-01T15:04:28.337Z,1564
2023-02-01T15:05:08.887Z,1344
2023-02-01T15:05:49.422Z,1252
2023-02-01T15:06:30.065Z,1296
2023-02-01T15:07:10.600Z,1404
2023-02-01T15:07:51.099Z,1372
2023-02-01T15:08:31.646Z,1468
2023-02-01T15:10:44.720Z,1060
2023-02-01T15:11:25.317Z,1016
2023-02-01T15:12:05.822Z,1096
2023-02-01T15:12:47.229Z,1132
2023-02-01T15:13:27.763Z,1136
2023-02-01T15:14:08.276Z,1104
2023-02-01T15:14:48.790Z,1268
2023-02-01T15:18:50.971Z,1348
2023-02-01T15:19:31.533Z,1240
2023-02-01T15:20:12.069Z,1124
2023-02-01T15:20:55.415Z,1100
2023-02-01T15:21:33.230Z,1100
2023-02-01T15:22:13.726Z,1072
2023-02-01T15:22:55.211Z,968
2023-02-01T15:23:35.730Z,908
2023-02-01T15:30:21.123Z,684
2023-02-01T15:31:01.746Z,696
2023-02-01T15:31:42.281Z,700
2023-02-01T15:32:23.462Z,660
2023-02-01T15:33:04.009Z,684
2023-02-01T15:33:44.533Z,728
2023-02-01T15:34:25.054Z,764
2023-02-01T15:35:05.611Z,716
2023-02-01T15:41:11.106Z,700
2023-02-01T15:41:51.625Z,796
2023-02-01T15:42:32.222Z,644
2023-02-01T15:43:12.730Z,564
2023-02-01T15:43:53.974Z,516
2023-02-01T15:44:33.883Z,528
2023-02-01T15:45:14.383Z,516
2023-02-01T15:45:54.911Z,512
2023-02-01T15:46:35.462Z,560
2023-02-01T15:47:15.977Z,524
2023-02-01T15:51:21.073Z,548
2023-02-01T15:52:01.657Z,504
2023-02-01T15:52:42.163Z,468
2023-02-01T15:53:22.663Z,432
2023-02-01T15:54:03.187Z,412
2023-02-01T15:54:43.782Z,388
2023-02-01T15:55:24.634Z,376
2023-02-01T15:56:04.849Z,364
2023-02-01T15:56:45.388Z,408
2023-02-01T15:57:25.888Z,420
2023-02-01T16:01:30.758Z,448